createdAt,value
2017-06-30T00:01:12.802Z,12.67
2017-06-30T00:03:41.354Z,15.13
2017-06-30T00:06:08.886Z,14.37
2017-06-30T00:08:38.082Z,16.27
2017-06-30T00:11:07.278Z,14.70
2017-06-30T00:13:36.708Z,15.77
2017-06-30T00:16:06.683Z,15.73
2017-06-30T00:18:35.304Z,15.53
2017-06-30T00:21:04.974Z,14.93
2017-06-30T00:23:34.245Z,14.43
2017-06-30T00:26:03.948Z,14.77
2017-06-30T00:28:31.739Z,16.00
2017-06-30T00:31:00.875Z,15.10
2017-06-30T00:33:30.374Z,14.93
2017-06-30T00:36:01.789Z,14.57
2017-06-30T00:38:33.114Z,16.10
2017-06-30T00:41:02.024Z,15.43
2017-06-30T00:43:31.772Z,12.50
2017-06-30T00:46:01.870Z,14.20
2017-06-30T00:48:31.289Z,15.20
2017-06-30T00:51:00.392Z,13.70
2017-06-30T00:53:29.287Z,12.77
2017-06-30T00:55:59.719Z,12.10
2017-06-30T00:58:28.218Z,12.17
2017-06-30T01:00:59.995Z,13.43
2017-06-30T01:03:29.229Z,13.33
2017-06-30T01:05:58.702Z,11.57
2017-06-30T01:08:26.251Z,12.43
2017-06-30T01:10:56.357Z,11.40
2017-06-30T01:13:24.678Z,11.97
2017-06-30T01:15:53.141Z,11.93
2017-06-30T01:18:20.729Z,10.77
2017-06-30T01:20:50.389Z,11.57
2017-06-30T01:23:21.416Z,11.90
2017-06-30T01:25:51.431Z,11.53
2017-06-30T01:28:19.674Z,12.07
2017-06-30T01:30:49.534Z,11.10
2017-06-30T01:33:18.285Z,11.37
2017-06-30T01:35:46.730Z,11.83
2017-06-30T01:38:16.067Z,11.00
2017-06-30T01:40:47.661Z,11.30
2017-06-30T01:43:16.891Z,12.93
2017-06-30T01:45:45.210Z,13.13
2017-06-30T01:48:14.142Z,11.97
2017-06-30T01:50:43.513Z,12.27
2017-06-30T01:53:12.434Z,11.60
2017-06-30T01:55:42.742Z,13.50
2017-06-30T01:58:10.828Z,10.33
2017-06-30T02:00:39.376Z,10.63
2017-06-30T02:03:07.763Z,10.63
2017-06-30T02:05:36.852Z,9.93
2017-06-30T02:08:06.127Z,8.93
2017-06-30T02:10:35.063Z,7.60
2017-06-30T02:13:05.318Z,7.67
2017-06-30T02:15:35.168Z,6.47
2017-06-30T02:18:02.978Z,5.43
2017-06-30T02:20:31.948Z,4.07
2017-06-30T02:23:00.983Z,3.73
2017-06-30T02:25:29.440Z,3.20
2017-06-30T02:27:59.859Z,3.60
2017-06-30T02:30:28.735Z,3.00
2017-06-30T02:33:00.082Z,2.50
2017-06-30T02:35:28.979Z,2.67
2017-06-30T02:37:57.447Z,2.90
2017-06-30T02:40:26.686Z,2.00
2017-06-30T02:42:56.148Z,2.47
2017-06-30T02:45:24.888Z,2.10
2017-06-30T02:47:53.449Z,1.60
2017-06-30T02:50:23.429Z,1.73
2017-06-30T02:52:51.812Z,2.40
2017-06-30T02:55:21.462Z,1.43
2017-06-30T02:57:51.324Z,1.60
2017-06-30T03:00:21.310Z,1.20
2017-06-30T03:02:50.028Z,1.23
2017-06-30T03:05:18.917Z,0.93
2017-06-30T03:07:47.307Z,0.80
2017-06-30T03:10:16.669Z,1.20
2017-06-30T03:12:45.475Z,1.13
2017-06-30T03:15:14.056Z,1.10
2017-06-30T03:17:43.370Z,1.00
2017-06-30T03:20:10.021Z,0.63
2017-06-30T03:22:37.457Z,2.33
2017-06-30T03:25:06.267Z,1.17
2017-06-30T03:27:36.451Z,1.20
2017-06-30T03:30:04.641Z,1.10
2017-06-30T03:32:33.719Z,1.37
2017-06-30T03:35:02.434Z,1.10
2017-06-30T03:37:30.710Z,0.83
2017-06-30T03:40:03.241Z,1.00
2017-06-30T03:42:34.658Z,1.00
2017-06-30T03:45:02.949Z,1.80
2017-06-30T03:47:35.797Z,0.90
2017-06-30T03:50:04.235Z,1.27
2017-06-30T03:52:32.900Z,1.13
2017-06-30T03:55:02.524Z,1.00
2017-06-30T03:57:29.674Z,1.30
2017-06-30T03:59:58.471Z,1.07
2017-06-30T04:02:26.700Z,0.93
2017-06-30T04:04:56.276Z,0.90
2017-06-30T04:07:25.666Z,1.27
2017-06-30T04:09:54.441Z,0.90
2017-06-30T04:12:25.473Z,0.90
2017-06-30T04:14:55.336Z,1.17
2017-06-30T04:17:24.676Z,1.43
2017-06-30T04:19:51.923Z,1.00
2017-06-30T04:22:21.602Z,1.10
2017-06-30T04:24:50.531Z,1.00
2017-06-30T04:27:19.322Z,1.17
2017-06-30T04:29:48.723Z,1.00
2017-06-30T04:32:16.575Z,1.30
2017-06-30T04:34:43.724Z,1.03
2017-06-30T04:37:11.896Z,1.10
2017-06-30T04:39:41.914Z,1.50
2017-06-30T04:42:08.548Z,1.00
2017-06-30T04:44:38.809Z,1.10
2017-06-30T04:47:09.770Z,1.10
2017-06-30T04:49:36.479Z,1.10
2017-06-30T04:52:05.258Z,1.10
2017-06-30T04:54:34.066Z,1.20
2017-06-30T04:57:03.808Z,1.70
2017-06-30T04:59:30.463Z,1.40
2017-06-30T05:01:57.611Z,1.37
2017-06-30T05:04:26.433Z,1.17
2017-06-30T05:06:55.374Z,1.50
2017-06-30T05:09:24.951Z,1.30
2017-06-30T05:11:54.979Z,1.40
2017-06-30T05:14:23.742Z,1.80
2017-06-30T05:16:52.150Z,1.60
2017-06-30T05:19:19.342Z,1.03
2017-06-30T05:21:52.068Z,2.20
2017-06-30T05:24:20.412Z,1.40
2017-06-30T05:26:48.963Z,1.70
2017-06-30T05:29:18.293Z,1.63
2017-06-30T05:31:47.565Z,1.93
2017-06-30T05:34:16.399Z,1.80
2017-06-30T05:36:44.515Z,1.40
2017-06-30T05:39:12.580Z,2.00
2017-06-30T05:41:40.660Z,1.30
2017-06-30T05:44:09.389Z,1.20
2017-06-30T05:46:38.131Z,2.57
2017-06-30T05:49:05.989Z,1.50
2017-06-30T05:51:34.383Z,1.67
2017-06-30T05:54:03.122Z,2.90
2017-06-30T05:56:32.073Z,1.50
2017-06-30T05:58:59.731Z,1.63
2017-06-30T06:01:29.701Z,1.60
2017-06-30T06:03:58.520Z,1.50
2017-06-30T06:06:27.879Z,1.83
2017-06-30T06:08:56.015Z,1.33
2017-06-30T06:11:26.769Z,1.33
2017-06-30T06:13:54.266Z,1.70
2017-06-30T06:16:22.335Z,1.50
2017-06-30T06:18:51.767Z,1.60
2017-06-30T06:21:21.001Z,1.50
2017-06-30T06:23:49.525Z,1.50
2017-06-30T06:26:17.642Z,1.83
2017-06-30T06:28:45.602Z,1.50
2017-06-30T06:31:15.259Z,1.63
2017-06-30T06:33:45.890Z,1.70
2017-06-30T06:36:14.572Z,1.53
2017-06-30T06:38:43.167Z,2.07
2017-06-30T06:41:11.561Z,1.43
2017-06-30T06:43:41.008Z,1.70
2017-06-30T06:46:10.003Z,1.70
2017-06-30T06:48:40.052Z,1.80
2017-06-30T06:51:09.087Z,2.20
2017-06-30T06:53:36.580Z,1.17
2017-06-30T06:56:05.839Z,1.53
2017-06-30T06:58:33.110Z,0.93
2017-06-30T07:01:02.586Z,1.90
2017-06-30T07:03:31.258Z,1.77
2017-06-30T07:06:01.122Z,1.00
2017-06-30T07:08:29.208Z,4.70
2017-06-30T07:10:56.987Z,2.10
2017-06-30T07:13:26.100Z,1.30
2017-06-30T07:15:53.902Z,2.10
2017-06-30T07:18:23.896Z,1.80
2017-06-30T07:20:52.436Z,1.90
2017-06-30T07:23:22.624Z,1.70
2017-06-30T07:25:52.539Z,1.33
2017-06-30T07:28:19.183Z,1.30
2017-06-30T07:30:49.390Z,1.60
2017-06-30T07:33:17.586Z,1.30
2017-06-30T07:35:44.239Z,1.43
2017-06-30T07:38:10.893Z,1.60
2017-06-30T07:40:39.375Z,1.83
2017-06-30T07:43:07.394Z,2.30
2017-06-30T07:45:38.594Z,1.70
2017-06-30T07:48:07.363Z,2.10
2017-06-30T07:50:36.506Z,1.20
2017-06-30T07:53:04.895Z,2.10
2017-06-30T07:55:31.535Z,1.60
2017-06-30T07:58:00.040Z,1.57
2017-06-30T08:00:29.939Z,2.03
2017-06-30T08:02:57.906Z,1.40
2017-06-30T08:05:27.356Z,2.30
2017-06-30T08:07:57.819Z,1.90
2017-06-30T08:10:26.966Z,2.00
2017-06-30T08:12:56.111Z,1.80
2017-06-30T08:15:23.352Z,2.03
2017-06-30T08:17:50.558Z,1.90
2017-06-30T08:20:19.671Z,1.47
2017-06-30T08:22:46.355Z,1.47
2017-06-30T08:25:16.200Z,1.00
2017-06-30T08:27:45.027Z,1.60
2017-06-30T08:30:12.633Z,1.90
2017-06-30T08:32:41.611Z,1.80
2017-06-30T08:35:10.199Z,1.23
2017-06-30T08:37:39.076Z,1.40
2017-06-30T08:40:08.127Z,2.30
2017-06-30T08:42:36.511Z,1.20
2017-06-30T08:45:05.333Z,1.60
2017-06-30T08:47:33.691Z,1.87
2017-06-30T08:50:01.990Z,1.23
2017-06-30T08:52:31.400Z,1.70
2017-06-30T08:54:58.860Z,2.40
2017-06-30T08:57:29.499Z,1.20
2017-06-30T08:59:58.477Z,1.40
2017-06-30T09:02:28.299Z,1.67
2017-06-30T09:04:58.516Z,1.40
2017-06-30T09:07:28.251Z,2.20
2017-06-30T09:09:56.540Z,1.00
2017-06-30T09:12:25.371Z,1.60
2017-06-30T09:14:54.981Z,1.57
2017-06-30T09:17:23.607Z,1.90
2017-06-30T09:19:51.311Z,1.20
2017-06-30T09:22:19.608Z,1.03
2017-06-30T09:24:46.895Z,2.27
2017-06-30T09:27:15.364Z,1.00
2017-06-30T09:29:42.204Z,1.40
2017-06-30T09:32:11.171Z,1.20
2017-06-30T09:34:41.694Z,1.57
2017-06-30T09:37:10.537Z,2.13
2017-06-30T09:39:41.280Z,1.27
2017-06-30T09:42:10.411Z,1.33
2017-06-30T09:44:37.731Z,1.50
2017-06-30T09:47:05.264Z,1.80
2017-06-30T09:49:32.629Z,1.33
2017-06-30T09:52:01.145Z,1.70
2017-06-30T09:54:27.775Z,1.47
2017-06-30T09:56:57.229Z,1.80
2017-06-30T09:59:25.617Z,1.60
2017-06-30T10:01:52.256Z,1.40
2017-06-30T10:04:19.849Z,1.83
2017-06-30T10:06:48.897Z,1.70
2017-06-30T10:09:19.379Z,1.87
2017-06-30T10:11:47.756Z,2.30
2017-06-30T10:14:14.399Z,1.60
2017-06-30T10:16:45.385Z,1.90
2017-06-30T10:19:15.623Z,1.90
2017-06-30T10:21:42.248Z,1.90
2017-06-30T10:24:12.918Z,1.10
2017-06-30T10:26:42.351Z,1.63
2017-06-30T10:29:11.760Z,1.50
2017-06-30T10:31:39.175Z,2.27
2017-06-30T10:34:07.445Z,1.70
2017-06-30T10:36:34.808Z,2.10
2017-06-30T10:39:01.456Z,2.73
2017-06-30T10:41:31.237Z,1.80
2017-06-30T10:44:02.582Z,1.50
2017-06-30T10:46:29.960Z,2.07
2017-06-30T10:48:58.324Z,2.50
2017-06-30T10:51:27.137Z,2.33
2017-06-30T10:53:56.015Z,1.80
2017-06-30T10:56:24.983Z,2.40
2017-06-30T10:58:54.555Z,1.60
2017-06-30T11:01:22.966Z,1.40
2017-06-30T11:03:52.831Z,1.47
2017-06-30T11:06:21.664Z,1.60
2017-06-30T11:08:50.458Z,1.83
2017-06-30T11:11:18.759Z,1.70
2017-06-30T11:13:47.148Z,2.17
2017-06-30T11:16:16.505Z,1.43
2017-06-30T11:18:45.371Z,1.40
2017-06-30T11:21:12.074Z,1.60
2017-06-30T11:23:42.135Z,2.07
2017-06-30T11:26:10.298Z,1.70
2017-06-30T11:28:39.070Z,1.40
2017-06-30T11:31:06.607Z,1.23
2017-06-30T11:33:34.260Z,1.50
2017-06-30T11:36:04.031Z,1.20
2017-06-30T11:38:33.910Z,1.40
2017-06-30T11:41:02.730Z,1.80
2017-06-30T11:43:33.314Z,2.10
2017-06-30T11:46:00.816Z,2.00
2017-06-30T11:48:29.582Z,1.20
2017-06-30T11:50:57.579Z,2.40
2017-06-30T11:53:26.358Z,1.40
2017-06-30T11:55:55.724Z,2.00
2017-06-30T11:58:25.571Z,1.30
2017-06-30T12:00:54.427Z,1.77
2017-06-30T12:03:26.301Z,1.63
2017-06-30T12:05:55.028Z,1.60
2017-06-30T12:08:23.227Z,1.70
2017-06-30T12:10:51.859Z,1.40
2017-06-30T12:13:20.801Z,1.30
2017-06-30T12:15:49.767Z,1.63
2017-06-30T12:18:17.723Z,1.60
2017-06-30T12:20:45.992Z,1.80
2017-06-30T12:23:13.601Z,1.53
2017-06-30T12:25:40.898Z,1.90
2017-06-30T12:28:07.524Z,1.47
2017-06-30T12:30:34.470Z,1.60
2017-06-30T12:33:01.118Z,1.33
2017-06-30T12:35:27.770Z,1.30
2017-06-30T12:37:54.466Z,1.90
2017-06-30T12:40:21.275Z,2.27
2017-06-30T12:42:47.899Z,1.60
2017-06-30T12:45:14.536Z,1.20
2017-06-30T12:47:41.163Z,1.80
2017-06-30T12:50:09.415Z,1.60
2017-06-30T12:52:37.284Z,2.07
2017-06-30T12:55:03.983Z,2.73
2017-06-30T12:57:31.882Z,1.57
2017-06-30T12:59:58.511Z,1.97
2017-06-30T13:02:29.112Z,1.50
2017-06-30T13:04:57.025Z,1.43
2017-06-30T13:07:29.322Z,1.03
2017-06-30T13:09:55.996Z,1.40
2017-06-30T13:12:22.628Z,1.47
2017-06-30T13:14:50.711Z,1.50
2017-06-30T13:17:20.636Z,1.20
2017-06-30T13:19:49.518Z,2.07
2017-06-30T13:22:17.259Z,1.60
2017-06-30T13:24:47.013Z,1.50
2017-06-30T13:27:16.396Z,1.80
2017-06-30T13:29:47.286Z,1.57
2017-06-30T13:32:14.828Z,1.30
2017-06-30T13:34:45.342Z,1.13
2017-06-30T13:37:13.569Z,1.50
2017-06-30T13:39:42.408Z,1.97
2017-06-30T13:42:12.978Z,0.73
2017-06-30T13:44:42.377Z,1.20
2017-06-30T13:47:11.135Z,1.30
2017-06-30T13:49:38.661Z,1.60
2017-06-30T13:52:08.169Z,1.30
2017-06-30T13:54:37.420Z,1.53
2017-06-30T13:57:07.116Z,1.30
2017-06-30T13:59:36.146Z,1.40
2017-06-30T14:02:04.255Z,1.73
2017-06-30T14:04:34.839Z,1.27
2017-06-30T14:07:02.607Z,1.90
2017-06-30T14:09:30.087Z,2.10
2017-06-30T14:11:56.752Z,1.20
2017-06-30T14:14:26.303Z,1.63
2017-06-30T14:16:52.939Z,1.63
2017-06-30T14:19:20.401Z,1.60
2017-06-30T14:21:47.016Z,1.13
2017-06-30T14:24:13.639Z,1.20
2017-06-30T14:26:40.278Z,1.10
2017-06-30T14:29:08.626Z,1.60
2017-06-30T14:31:35.424Z,0.73
2017-06-30T14:34:02.082Z,0.87
2017-06-30T14:36:33.275Z,1.40
2017-06-30T14:38:59.912Z,0.97
2017-06-30T14:41:26.546Z,1.13
2017-06-30T14:43:56.441Z,1.40
2017-06-30T14:46:25.384Z,1.53
2017-06-30T14:48:55.200Z,1.70
2017-06-30T14:51:25.112Z,0.90
2017-06-30T14:53:54.612Z,1.30
2017-06-30T14:56:24.076Z,1.20
2017-06-30T14:58:52.974Z,1.10
2017-06-30T15:01:19.631Z,1.47
2017-06-30T15:03:46.236Z,1.57
2017-06-30T15:06:16.015Z,1.23
2017-06-30T15:08:44.811Z,1.47
2017-06-30T15:11:16.833Z,0.97
2017-06-30T15:13:47.571Z,0.80
2017-06-30T15:16:14.936Z,1.20
2017-06-30T15:18:44.013Z,1.13
2017-06-30T15:21:11.470Z,1.30
2017-06-30T15:23:38.085Z,1.53
2017-06-30T15:26:09.145Z,0.90
2017-06-30T15:28:35.797Z,1.13
2017-06-30T15:31:03.464Z,1.00
2017-06-30T15:33:30.152Z,1.10
2017-06-30T15:35:56.797Z,1.10
2017-06-30T15:38:24.971Z,1.50
2017-06-30T15:40:54.996Z,1.20
2017-06-30T15:43:23.882Z,1.60
2017-06-30T15:45:52.163Z,1.10
2017-06-30T15:48:20.898Z,1.03
2017-06-30T15:50:51.816Z,1.00
2017-06-30T15:53:20.848Z,0.90
2017-06-30T15:55:50.295Z,1.30
2017-06-30T15:58:16.931Z,0.53
2017-06-30T16:00:48.076Z,0.87
2017-06-30T16:03:15.355Z,0.80
2017-06-30T16:05:41.997Z,0.90
2017-06-30T16:08:11.988Z,0.83
2017-06-30T16:10:38.620Z,1.10
2017-06-30T16:13:06.967Z,0.90
2017-06-30T16:15:34.184Z,1.13
2017-06-30T16:18:03.983Z,1.00
2017-06-30T16:20:33.340Z,0.80
2017-06-30T16:23:02.226Z,0.90
2017-06-30T16:25:30.478Z,1.17
2017-06-30T16:28:00.722Z,0.90
2017-06-30T16:30:32.160Z,0.80
2017-06-30T16:33:00.332Z,1.07
2017-06-30T16:35:29.023Z,1.00
2017-06-30T16:37:58.034Z,1.03
2017-06-30T16:40:27.132Z,1.33
2017-06-30T16:42:56.026Z,0.80
2017-06-30T16:45:25.346Z,1.00
2017-06-30T16:47:51.955Z,0.80
2017-06-30T16:50:21.914Z,1.10
2017-06-30T16:52:50.758Z,1.00
2017-06-30T16:55:19.828Z,0.60
2017-06-30T16:57:48.739Z,0.60
2017-06-30T17:00:17.865Z,1.43
2017-06-30T17:02:47.250Z,0.77
2017-06-30T17:05:17.014Z,0.80
2017-06-30T17:07:45.915Z,2.17
2017-06-30T17:10:15.599Z,1.07
2017-06-30T17:12:43.431Z,0.93
2017-06-30T17:15:13.333Z,1.60
2017-06-30T17:17:43.036Z,1.00
2017-06-30T17:20:13.420Z,0.87
2017-06-30T17:22:43.013Z,1.17
2017-06-30T17:25:11.096Z,1.10
2017-06-30T17:27:40.345Z,1.10
2017-06-30T17:30:13.071Z,1.10
2017-06-30T17:32:41.824Z,1.20
2017-06-30T17:35:12.334Z,0.70
2017-06-30T17:37:43.813Z,0.90
2017-06-30T17:40:10.444Z,0.93
2017-06-30T17:42:37.091Z,0.70
2017-06-30T17:45:04.264Z,0.97
2017-06-30T17:47:33.255Z,1.03
2017-06-30T17:50:01.360Z,1.00
2017-06-30T17:52:28.908Z,0.90
2017-06-30T17:54:56.588Z,0.63
2017-06-30T17:57:23.243Z,0.60
2017-06-30T17:59:49.903Z,0.97
2017-06-30T18:02:19.801Z,0.60
2017-06-30T18:04:50.358Z,0.90
2017-06-30T18:07:16.999Z,1.07
2017-06-30T18:09:43.618Z,0.63
2017-06-30T18:12:10.254Z,0.70
2017-06-30T18:14:38.549Z,0.70
2017-06-30T18:17:05.175Z,0.83
2017-06-30T18:19:31.823Z,0.60
2017-06-30T18:21:58.436Z,1.00
2017-06-30T18:24:25.080Z,0.60
2017-06-30T18:26:51.717Z,1.13
2017-06-30T18:29:18.365Z,1.10
2017-06-30T18:31:45.010Z,1.30
2017-06-30T18:34:11.636Z,4.57
2017-06-30T18:36:38.248Z,7.27
2017-06-30T18:39:04.924Z,8.40
2017-06-30T18:41:31.554Z,7.33
2017-06-30T18:43:58.204Z,7.90
2017-06-30T18:46:24.822Z,8.80
2017-06-30T18:48:51.456Z,8.00
2017-06-30T18:51:18.096Z,8.77
2017-06-30T18:53:44.753Z,9.73
2017-06-30T18:56:11.400Z,7.77
2017-06-30T18:58:38.027Z,7.53
2017-06-30T19:01:04.676Z,7.77
2017-06-30T19:03:31.312Z,7.73
2017-06-30T19:06:01.759Z,8.80
2017-06-30T19:08:30.378Z,7.40
2017-06-30T19:10:59.119Z,7.40
2017-06-30T19:13:30.009Z,8.20
2017-06-30T19:15:58.827Z,6.23
2017-06-30T19:18:27.242Z,5.80
2017-06-30T19:20:54.233Z,6.10
2017-06-30T19:23:23.088Z,5.13
2017-06-30T19:25:50.587Z,6.80
2017-06-30T19:28:18.257Z,5.13
2017-06-30T19:30:48.340Z,5.50
2017-06-30T19:33:17.943Z,5.93
2017-06-30T19:35:47.389Z,6.07
2017-06-30T19:38:15.619Z,5.73
2017-06-30T19:40:44.346Z,7.50
2017-06-30T19:43:15.827Z,6.47
2017-06-30T19:45:45.900Z,7.00
2017-06-30T19:48:14.299Z,7.30
2017-06-30T19:50:42.627Z,9.77
2017-06-30T19:53:13.090Z,9.20
2017-06-30T19:55:42.988Z,8.60
2017-06-30T19:58:12.026Z,8.90
2017-06-30T20:00:41.698Z,9.63
2017-06-30T20:03:08.316Z,8.37
2017-06-30T20:05:41.453Z,8.33
2017-06-30T20:08:09.726Z,9.77
2017-06-30T20:10:39.268Z,9.87
2017-06-30T20:13:09.069Z,16.87
2017-06-30T20:15:39.039Z,16.40
2017-06-30T20:18:07.855Z,15.80
2017-06-30T20:20:38.787Z,16.03
2017-06-30T20:23:05.440Z,15.20
2017-06-30T20:25:32.084Z,15.30
2017-06-30T20:27:58.757Z,14.40
2017-06-30T20:30:25.410Z,16.80
2017-06-30T20:32:52.065Z,17.50
2017-06-30T20:35:18.704Z,13.80
2017-06-30T20:37:45.346Z,16.70
2017-06-30T20:40:12.019Z,16.07
2017-06-30T20:42:38.671Z,14.33
2017-06-30T20:45:05.337Z,18.47
2017-06-30T20:47:31.970Z,18.30
2017-06-30T20:49:58.635Z,16.50
2017-06-30T20:52:25.307Z,20.80
2017-06-30T20:54:51.944Z,24.77
2017-06-30T20:57:18.611Z,27.57
2017-06-30T20:59:45.251Z,24.87
2017-06-30T21:02:11.894Z,28.53
2017-06-30T21:04:38.520Z,31.57
2017-06-30T21:07:05.144Z,31.47
2017-06-30T21:09:31.812Z,27.80
2017-06-30T21:11:58.473Z,32.80
2017-06-30T21:14:25.102Z,30.13
2017-06-30T21:16:51.777Z,28.13
2017-06-30T21:19:18.433Z,28.07
2017-06-30T21:21:45.069Z,30.67
2017-06-30T21:24:11.708Z,28.67
2017-06-30T21:26:38.328Z,32.53
2017-06-30T21:29:05.316Z,30.20
2017-06-30T21:31:31.970Z,29.90
2017-06-30T21:33:58.610Z,28.77
2017-06-30T21:36:25.279Z,32.60
2017-06-30T21:38:51.912Z,30.47
2017-06-30T21:41:18.545Z,33.80
2017-06-30T21:43:45.218Z,32.20
2017-06-30T21:46:11.834Z,36.00
2017-06-30T21:48:39.615Z,29.97
2017-06-30T21:51:06.271Z,29.67
2017-06-30T21:53:32.893Z,33.27
2017-06-30T21:55:59.533Z,39.23
2017-06-30T21:58:26.175Z,33.50
2017-06-30T22:00:53.355Z,34.93
2017-06-30T22:03:19.989Z,32.87
2017-06-30T22:05:46.637Z,36.40
2017-06-30T22:08:13.628Z,34.90
2017-06-30T22:10:40.246Z,36.40
2017-06-30T22:13:06.896Z,34.67
2017-06-30T22:15:37.604Z,37.50
2017-06-30T22:18:08.007Z,40.90
2017-06-30T22:20:34.639Z,42.53
2017-06-30T22:23:01.285Z,38.27
2017-06-30T22:25:28.279Z,42.60
2017-06-30T22:27:54.891Z,37.60
2017-06-30T22:30:21.555Z,39.77
2017-06-30T22:32:48.201Z,35.50
2017-06-30T22:35:14.856Z,38.57
2017-06-30T22:37:42.662Z,41.67
2017-06-30T22:40:09.316Z,38.40
2017-06-30T22:42:35.938Z,38.37
2017-06-30T22:45:02.576Z,39.73
2017-06-30T22:47:29.887Z,37.40
2017-06-30T22:49:56.546Z,38.80
2017-06-30T22:52:23.221Z,35.10
2017-06-30T22:54:49.848Z,28.93
2017-06-30T22:57:16.506Z,28.77
2017-06-30T22:59:43.529Z,27.73
2017-06-30T23:02:10.167Z,29.17
2017-06-30T23:04:36.868Z,31.67
2017-06-30T23:07:03.480Z,33.83
2017-06-30T23:09:31.237Z,30.27
2017-06-30T23:11:59.836Z,30.87
2017-06-30T23:14:26.515Z,30.70
2017-06-30T23:16:53.155Z,31.77
2017-06-30T23:19:19.811Z,35.30
2017-06-30T23:21:48.305Z,36.70
2017-06-30T23:24:14.955Z,34.70
2017-06-30T23:26:41.588Z,31.47
2017-06-30T23:29:08.232Z,36.43
2017-06-30T23:31:34.879Z,31.10
2017-06-30T23:34:01.523Z,30.20
2017-06-30T23:36:28.173Z,30.90
2017-06-30T23:38:54.845Z,28.20
2017-06-30T23:41:21.495Z,33.80
2017-06-30T23:43:48.150Z,25.80
2017-06-30T23:46:14.768Z,27.43
2017-06-30T23:48:41.476Z,25.43
2017-06-30T23:51:08.110Z,26.33
2017-06-30T23:53:34.730Z,26.30
2017-06-30T23:56:01.389Z,24.63
2017-06-30T23:58:28.033Z,26.10
